createdAt,value
2022-08-22T00:00:20.523Z,18.20
2022-08-22T00:03:07.585Z,19.00
2022-08-22T00:05:46.231Z,18.20
2022-08-22T00:08:32.361Z,18.10
2022-08-22T00:11:25.806Z,18.10
2022-08-22T00:14:21.142Z,18.00
2022-08-22T00:17:00.134Z,18.10
2022-08-22T00:19:42.070Z,18.00
2022-08-22T00:22:35.097Z,18.00
2022-08-22T00:25:26.094Z,18.10
2022-08-22T00:27:56.848Z,18.00
2022-08-22T00:30:25.403Z,18.00
2022-08-22T00:33:05.031Z,18.00
2022-08-22T00:35:46.477Z,18.00
2022-08-22T00:38:29.046Z,18.00
2022-08-22T00:41:16.595Z,17.90
2022-08-22T00:43:57.280Z,17.90
2022-08-22T00:46:46.483Z,17.90
2022-08-22T00:49:35.261Z,17.90
2022-08-22T00:52:18.203Z,17.90
2022-08-22T00:54:52.114Z,17.90
2022-08-22T00:57:35.217Z,17.80
2022-08-22T01:00:14.049Z,17.90
2022-08-22T01:03:15.252Z,17.70
2022-08-22T01:05:55.195Z,17.70
2022-08-22T01:08:51.059Z,17.70
2022-08-22T01:11:36.189Z,17.70
2022-08-22T01:14:44.512Z,17.70
2022-08-22T01:17:32.858Z,17.70
2022-08-22T01:20:28.164Z,17.70
2022-08-22T01:23:13.863Z,17.70
2022-08-22T01:26:33.111Z,17.70
2022-08-22T01:29:16.247Z,17.70
2022-08-22T01:31:55.438Z,17.60
2022-08-22T01:34:44.514Z,17.50
2022-08-22T01:37:47.705Z,17.50
2022-08-22T01:40:30.041Z,17.50
2022-08-22T01:43:15.772Z,17.40
2022-08-22T01:46:01.527Z,17.40
2022-08-22T01:48:35.717Z,17.40
2022-08-22T01:51:13.094Z,17.30
2022-08-22T01:53:52.869Z,17.40
2022-08-22T01:56:23.083Z,17.30
2022-08-22T01:59:10.883Z,17.30
2022-08-22T02:01:52.688Z,17.30
2022-08-22T02:04:44.636Z,17.20
2022-08-22T02:07:45.023Z,17.20
2022-08-22T02:10:58.304Z,17.20
2022-08-22T02:13:33.524Z,17.30
2022-08-22T02:16:30.702Z,17.20
2022-08-22T02:19:09.690Z,17.20
2022-08-22T02:21:51.848Z,17.10
2022-08-22T02:24:34.461Z,17.10
2022-08-22T02:27:31.440Z,17.00
2022-08-22T02:30:10.081Z,17.00
2022-08-22T02:32:40.362Z,17.00
2022-08-22T02:35:10.779Z,17.10
2022-08-22T02:37:48.822Z,17.10
2022-08-22T02:40:48.374Z,17.10
2022-08-22T02:43:27.450Z,17.10
2022-08-22T02:46:16.046Z,17.20
2022-08-22T02:49:02.539Z,17.10
2022-08-22T02:51:48.386Z,17.10
2022-08-22T02:54:21.391Z,17.10
2022-08-22T02:56:55.595Z,17.10
2022-08-22T02:59:53.121Z,17.10
2022-08-22T03:03:00.426Z,17.10
2022-08-22T03:05:48.438Z,17.10
2022-08-22T03:08:29.324Z,17.10
2022-08-22T03:11:18.054Z,17.10
2022-08-22T03:14:10.004Z,17.10
2022-08-22T03:16:41.069Z,17.10
2022-08-22T03:19:24.241Z,17.00
2022-08-22T03:22:02.350Z,17.00
2022-08-22T03:24:35.406Z,16.90
2022-08-22T03:27:33.174Z,16.90
2022-08-22T03:30:31.383Z,16.90
2022-08-22T03:33:15.532Z,16.80
2022-08-22T03:35:45.994Z,16.70
2022-08-22T03:38:19.244Z,16.70
2022-08-22T03:41:10.733Z,16.70
2022-08-22T03:44:14.595Z,16.70
2022-08-22T03:47:19.458Z,16.70
2022-08-22T03:50:17.721Z,16.70
2022-08-22T03:53:10.431Z,16.70
2022-08-22T03:56:14.483Z,16.70
2022-08-22T03:59:15.676Z,16.70
2022-08-22T04:01:51.410Z,16.70
2022-08-22T04:04:37.025Z,16.70
2022-08-22T04:07:35.889Z,16.70
2022-08-22T04:10:40.604Z,16.60
2022-08-22T04:13:24.848Z,16.60
2022-08-22T04:16:31.018Z,16.60
2022-08-22T04:19:10.314Z,16.60
2022-08-22T04:21:52.702Z,16.60
2022-08-22T04:24:26.018Z,16.50
2022-08-22T04:27:27.873Z,16.50
2022-08-22T04:29:59.836Z,16.50
2022-08-22T04:32:35.149Z,16.60
2022-08-22T04:35:06.994Z,16.60
2022-08-22T04:37:54.536Z,16.60
2022-08-22T04:40:33.309Z,16.60
2022-08-22T04:43:16.082Z,16.60
2022-08-22T04:46:08.126Z,16.60
2022-08-22T04:48:44.936Z,16.60
2022-08-22T04:51:35.316Z,16.60
2022-08-22T04:54:18.377Z,16.60
2022-08-22T04:57:29.143Z,16.60
2022-08-22T05:00:16.651Z,16.60
2022-08-22T05:02:50.209Z,16.60
2022-08-22T05:05:25.563Z,16.50
2022-08-22T05:07:58.580Z,16.40
2022-08-22T05:10:35.560Z,16.40
2022-08-22T05:13:07.886Z,16.30
2022-08-22T05:15:38.631Z,16.40
2022-08-22T05:18:13.425Z,16.30
2022-08-22T05:20:45.543Z,16.30
2022-08-22T05:23:28.886Z,16.30
2022-08-22T05:26:06.087Z,16.20
2022-08-22T05:28:37.288Z,16.20
2022-08-22T05:31:24.006Z,16.20
2022-08-22T05:33:57.753Z,16.30
2022-08-22T05:36:41.634Z,16.30
2022-08-22T05:39:13.999Z,16.30
2022-08-22T05:41:42.340Z,16.40
2022-08-22T05:44:32.667Z,16.40
2022-08-22T05:47:06.426Z,16.40
2022-08-22T05:49:55.496Z,16.50
2022-08-22T05:52:38.253Z,16.50
2022-08-22T05:55:14.905Z,16.50
2022-08-22T05:57:47.437Z,16.50
2022-08-22T06:00:22.542Z,16.60
2022-08-22T06:02:53.437Z,16.60
2022-08-22T06:05:29.147Z,16.60
2022-08-22T06:08:34.471Z,16.60
2022-08-22T06:11:15.335Z,16.60
2022-08-22T06:13:56.883Z,16.70
2022-08-22T06:16:36.130Z,16.70
2022-08-22T06:19:05.024Z,16.70
2022-08-22T06:21:50.244Z,16.70
2022-08-22T06:24:27.974Z,16.70
2022-08-22T06:27:03.489Z,16.70
2022-08-22T06:29:44.231Z,16.70
2022-08-22T06:32:44.483Z,16.80
2022-08-22T06:35:22.226Z,16.90
2022-08-22T06:37:52.886Z,16.90
2022-08-22T06:40:20.537Z,17.00
2022-08-22T06:42:51.003Z,17.00
2022-08-22T06:45:30.112Z,17.00
2022-08-22T06:48:19.543Z,17.00
2022-08-22T06:50:52.505Z,17.10
2022-08-22T06:54:01.915Z,17.10
2022-08-22T06:56:39.276Z,17.20
2022-08-22T06:59:13.256Z,17.40
2022-08-22T07:01:54.949Z,17.50
2022-08-22T07:04:27.737Z,17.50
2022-08-22T07:06:57.602Z,17.50
2022-08-22T07:09:31.563Z,17.50
2022-08-22T07:12:10.949Z,17.50
2022-08-22T07:14:45.562Z,17.50
2022-08-22T07:17:26.330Z,17.50
2022-08-22T07:20:05.901Z,17.60
2022-08-22T07:22:36.628Z,17.60
2022-08-22T07:25:12.119Z,17.80
2022-08-22T07:28:00.296Z,17.90
2022-08-22T07:30:53.469Z,18.10
2022-08-22T07:33:38.890Z,18.00
2022-08-22T07:36:22.993Z,18.00
2022-08-22T07:38:56.572Z,18.10
2022-08-22T07:41:33.478Z,18.20
2022-08-22T07:44:21.598Z,18.20
2022-08-22T07:47:07.984Z,18.30
2022-08-22T07:49:49.703Z,18.40
2022-08-22T07:52:18.972Z,18.40
2022-08-22T07:55:18.679Z,18.50
2022-08-22T07:58:04.935Z,18.50
2022-08-22T08:00:33.000Z,18.60
2022-08-22T08:03:07.550Z,18.60
2022-08-22T08:05:37.729Z,18.70
2022-08-22T08:08:15.540Z,18.80
2022-08-22T08:10:43.837Z,18.90
2022-08-22T08:13:20.461Z,18.90
2022-08-22T08:15:50.664Z,19.00
2022-08-22T08:18:23.460Z,19.10
2022-08-22T08:20:54.794Z,19.10
2022-08-22T08:23:25.100Z,19.30
2022-08-22T08:26:10.448Z,19.30
2022-08-22T08:28:54.375Z,19.50
2022-08-22T08:31:28.204Z,19.60
2022-08-22T08:34:07.899Z,19.70
2022-08-22T08:37:01.174Z,19.70
2022-08-22T08:39:41.022Z,19.80
2022-08-22T08:42:26.975Z,19.70
2022-08-22T08:44:57.949Z,19.80
2022-08-22T08:47:34.514Z,19.90
2022-08-22T08:50:16.824Z,20.00
2022-08-22T08:53:23.934Z,20.00
2022-08-22T08:56:19.915Z,20.10
2022-08-22T08:58:59.891Z,20.20
2022-08-22T09:01:46.177Z,20.30
2022-08-22T09:04:46.295Z,20.40
2022-08-22T09:07:44.352Z,20.40
2022-08-22T09:10:42.251Z,20.30
2022-08-22T09:13:42.252Z,20.20
2022-08-22T09:16:45.605Z,20.20
2022-08-22T09:19:37.658Z,20.30
2022-08-22T09:25:23.422Z,20.50
2022-08-22T09:31:47.703Z,20.70
2022-08-22T09:34:43.381Z,20.80
2022-08-22T09:37:30.228Z,20.90
2022-08-22T09:40:15.633Z,20.70
2022-08-22T09:40:17.510Z,21.00
2022-08-22T09:43:28.532Z,21.00
2022-08-22T09:46:32.173Z,21.00
2022-08-22T09:49:21.589Z,21.00
2022-08-22T09:52:15.208Z,21.10
2022-08-22T09:55:08.629Z,21.30
2022-08-22T09:57:39.059Z,21.40
2022-08-22T10:00:32.563Z,21.40
2022-08-22T10:03:23.676Z,21.50
2022-08-22T10:06:02.219Z,21.60
2022-08-22T10:08:51.007Z,21.70
2022-08-22T10:11:23.999Z,21.70
2022-08-22T10:14:08.594Z,21.70
2022-08-22T10:17:02.480Z,21.70
2022-08-22T10:19:40.751Z,21.70
2022-08-22T10:22:17.161Z,21.50
2022-08-22T10:25:12.696Z,21.40
2022-08-22T10:28:01.439Z,21.40
2022-08-22T10:30:45.759Z,21.40
2022-08-22T10:33:23.112Z,21.30
2022-08-22T10:35:50.455Z,21.30
2022-08-22T10:38:46.502Z,21.40
2022-08-22T10:41:36.203Z,21.50
2022-08-22T10:44:40.156Z,21.50
2022-08-22T10:47:46.464Z,21.60
2022-08-22T10:50:31.096Z,21.60
2022-08-22T10:53:32.525Z,21.50
2022-08-22T10:56:21.557Z,21.40
2022-08-22T10:58:56.206Z,21.30
2022-08-22T11:01:41.670Z,21.30
2022-08-22T11:04:19.815Z,21.20
2022-08-22T11:07:10.790Z,21.10
2022-08-22T11:09:44.175Z,21.00
2022-08-22T11:12:23.429Z,21.00
2022-08-22T11:15:00.300Z,20.90
2022-08-22T11:17:54.131Z,21.00
2022-08-22T11:20:46.226Z,21.10
2022-08-22T11:23:26.105Z,21.20
2022-08-22T11:26:04.866Z,21.30
2022-08-22T11:28:51.958Z,21.40
2022-08-22T11:31:47.323Z,21.60
2022-08-22T11:34:40.531Z,21.80
2022-08-22T11:37:19.705Z,21.90
2022-08-22T11:40:12.912Z,22.00
2022-08-22T11:43:04.993Z,22.00
2022-08-22T11:45:43.191Z,21.90
2022-08-22T11:48:34.151Z,21.80
2022-08-22T11:51:14.642Z,21.70
2022-08-22T11:53:48.566Z,21.50
2022-08-22T11:56:33.037Z,21.50
2022-08-22T11:59:43.221Z,21.50
2022-08-22T12:02:26.534Z,21.40
2022-08-22T12:05:03.274Z,21.40
2022-08-22T12:07:37.015Z,21.50
2022-08-22T12:10:04.387Z,21.60
2022-08-22T12:12:37.650Z,21.70
2022-08-22T12:15:27.658Z,21.60
2022-08-22T12:18:17.830Z,21.50
2022-08-22T12:21:10.546Z,21.50
2022-08-22T12:24:19.239Z,21.50
2022-08-22T12:27:11.213Z,21.60
2022-08-22T12:30:12.964Z,21.80
2022-08-22T12:32:45.676Z,21.90
2022-08-22T12:35:30.085Z,21.90
2022-08-22T12:38:36.043Z,22.30
2022-08-22T12:41:46.715Z,22.50
2022-08-22T12:44:45.168Z,22.40
2022-08-22T12:47:27.397Z,22.30
2022-08-22T12:50:19.906Z,22.10
2022-08-22T12:53:01.394Z,22.20
2022-08-22T12:55:50.482Z,22.40
2022-08-22T12:58:37.885Z,22.40
2022-08-22T13:01:08.658Z,22.10
2022-08-22T13:03:44.793Z,22.00
2022-08-22T13:06:33.970Z,22.40
2022-08-22T13:09:04.228Z,22.70
2022-08-22T13:11:41.094Z,23.30
2022-08-22T13:14:18.513Z,23.60
2022-08-22T13:16:52.748Z,23.50
2022-08-22T13:19:24.040Z,23.20
2022-08-22T13:22:03.421Z,22.80
2022-08-22T13:25:04.871Z,22.50
2022-08-22T13:27:56.023Z,22.40
2022-08-22T13:30:34.680Z,22.50
2022-08-22T13:33:13.461Z,22.80
2022-08-22T13:35:46.573Z,22.80
2022-08-22T13:38:26.572Z,22.80
2022-08-22T13:40:59.221Z,22.60
2022-08-22T13:43:35.506Z,22.50
2022-08-22T13:46:07.000Z,22.40
2022-08-22T13:48:52.312Z,22.40
2022-08-22T13:51:49.716Z,22.50
2022-08-22T13:54:42.819Z,22.50
2022-08-22T13:57:28.527Z,22.30
2022-08-22T14:00:11.237Z,22.00
2022-08-22T14:03:05.607Z,21.80
2022-08-22T14:05:49.239Z,21.70
2022-08-22T14:08:25.831Z,21.60
2022-08-22T14:11:08.812Z,21.40
2022-08-22T14:13:37.610Z,21.50
2022-08-22T14:16:30.592Z,21.50
2022-08-22T14:19:27.232Z,21.60
2022-08-22T14:22:15.837Z,21.60
2022-08-22T14:24:55.762Z,21.60
2022-08-22T14:27:33.945Z,21.60
2022-08-22T14:30:13.085Z,21.50
2022-08-22T14:33:12.717Z,21.40
2022-08-22T14:35:52.932Z,21.40
2022-08-22T14:38:46.374Z,21.50
2022-08-22T14:41:52.306Z,21.40
2022-08-22T14:44:38.759Z,21.50
2022-08-22T14:47:54.013Z,21.70
2022-08-22T14:50:11.213Z,21.70
2022-08-22T14:52:48.429Z,22.00
2022-08-22T14:55:24.303Z,22.20
2022-08-22T14:57:57.188Z,22.30
2022-08-22T15:00:33.388Z,22.20
2022-08-22T15:03:29.307Z,22.30
2022-08-22T15:06:05.039Z,22.40
2022-08-22T15:08:48.185Z,22.50
2022-08-22T15:11:22.370Z,22.40
2022-08-22T15:14:04.695Z,22.30
2022-08-22T15:16:57.581Z,22.30
2022-08-22T15:19:27.351Z,22.30
2022-08-22T15:22:20.907Z,22.20
2022-08-22T15:25:04.655Z,22.20
2022-08-22T15:27:35.391Z,22.20
2022-08-22T15:30:16.907Z,22.10
2022-08-22T15:32:49.088Z,22.00
2022-08-22T15:35:28.380Z,22.10
2022-08-22T15:37:57.659Z,22.30
2022-08-22T15:40:41.878Z,22.20
2022-08-22T15:43:25.719Z,22.30
2022-08-22T15:46:21.277Z,22.40
2022-08-22T15:49:20.943Z,22.50
2022-08-22T15:51:48.310Z,22.50
2022-08-22T15:54:25.656Z,22.50
2022-08-22T15:56:53.404Z,22.50
2022-08-22T15:59:48.192Z,22.60
2022-08-22T16:02:29.283Z,22.60
2022-08-22T16:05:22.931Z,22.50
2022-08-22T16:08:16.603Z,22.50
2022-08-22T16:10:53.596Z,22.50
2022-08-22T16:13:30.641Z,22.40
2022-08-22T16:16:02.973Z,22.50
2022-08-22T16:18:33.559Z,22.50
2022-08-22T16:21:05.221Z,22.50
2022-08-22T16:23:56.770Z,22.50
2022-08-22T16:26:30.019Z,22.50
2022-08-22T16:29:17.867Z,22.40
2022-08-22T16:31:48.438Z,22.40
2022-08-22T16:34:20.813Z,22.30
2022-08-22T16:36:48.123Z,22.30
2022-08-22T16:39:21.450Z,22.30
2022-08-22T16:41:56.269Z,22.30
2022-08-22T16:44:29.404Z,22.30
2022-08-22T16:47:15.332Z,22.30
2022-08-22T16:49:51.750Z,22.10
2022-08-22T16:52:25.460Z,22.10
2022-08-22T16:55:02.001Z,22.00
2022-08-22T16:58:05.766Z,22.00
2022-08-22T17:00:49.751Z,22.00
2022-08-22T17:03:37.232Z,21.90
2022-08-22T17:06:28.472Z,21.90
2022-08-22T17:09:36.389Z,21.90
2022-08-22T17:12:28.180Z,21.60
2022-08-22T17:15:01.215Z,21.40
2022-08-22T17:17:46.772Z,21.30
2022-08-22T17:20:35.484Z,21.20
2022-08-22T17:23:09.070Z,21.20
2022-08-22T17:25:55.887Z,21.20
2022-08-22T17:28:34.007Z,21.30
2022-08-22T17:31:24.137Z,21.30
2022-08-22T17:34:04.165Z,21.40
2022-08-22T17:36:44.911Z,21.40
2022-08-22T17:39:42.669Z,21.30
2022-08-22T17:42:35.185Z,21.30
2022-08-22T17:45:13.754Z,21.30
2022-08-22T17:47:49.348Z,21.40
2022-08-22T17:50:16.753Z,21.40
2022-08-22T17:53:23.026Z,21.40
2022-08-22T17:56:02.431Z,21.40
2022-08-22T17:58:43.409Z,21.40
2022-08-22T18:02:09.703Z,21.50
2022-08-22T18:05:05.422Z,21.50
2022-08-22T18:07:41.844Z,21.40
2022-08-22T18:10:15.136Z,21.20
2022-08-22T18:13:15.077Z,21.10
2022-08-22T18:15:58.803Z,21.00
2022-08-22T18:18:31.254Z,20.90
2022-08-22T18:21:23.899Z,20.90
2022-08-22T18:23:57.376Z,20.90
2022-08-22T18:27:34.119Z,20.90
2022-08-22T18:30:26.588Z,20.90
2022-08-22T18:33:00.760Z,20.80
2022-08-22T18:35:54.479Z,20.80
2022-08-22T18:38:25.655Z,20.80
2022-08-22T18:41:03.587Z,20.80
2022-08-22T18:43:44.488Z,20.90
2022-08-22T18:46:33.339Z,20.90
2022-08-22T18:49:33.346Z,20.90
2022-08-22T18:52:09.656Z,20.90
2022-08-22T18:54:44.842Z,21.00
2022-08-22T18:57:42.747Z,21.00
2022-08-22T19:00:18.300Z,20.90
2022-08-22T19:02:57.756Z,20.90
2022-08-22T19:06:03.794Z,20.90
2022-08-22T19:08:58.658Z,20.80
2022-08-22T19:11:47.069Z,20.90
2022-08-22T19:14:51.245Z,20.80
2022-08-22T19:17:39.243Z,20.80
2022-08-22T19:20:27.888Z,20.70
2022-08-22T19:23:33.862Z,20.70
2022-08-22T19:26:26.088Z,20.70
2022-08-22T19:28:58.842Z,20.70
2022-08-22T19:31:44.157Z,20.70
2022-08-22T19:34:34.308Z,20.60
2022-08-22T19:37:31.065Z,20.60
2022-08-22T19:40:11.418Z,20.50
2022-08-22T19:42:41.514Z,20.50
2022-08-22T19:45:29.017Z,20.50
2022-08-22T19:48:15.376Z,20.50
2022-08-22T19:50:43.505Z,20.40
2022-08-22T19:53:34.777Z,20.30
2022-08-22T19:56:17.228Z,20.30
2022-08-22T19:59:02.703Z,20.20
2022-08-22T20:01:40.538Z,20.20
2022-08-22T20:04:36.597Z,20.10
2022-08-22T20:07:16.591Z,20.10
2022-08-22T20:10:14.211Z,20.10
2022-08-22T20:12:59.044Z,20.00
2022-08-22T20:15:29.349Z,20.00
2022-08-22T20:18:46.414Z,20.00
2022-08-22T20:20:59.843Z,20.00
2022-08-22T20:23:31.177Z,19.90
2022-08-22T20:25:59.638Z,19.90
2022-08-22T20:28:34.070Z,19.90
2022-08-22T20:31:05.850Z,19.90
2022-08-22T20:33:40.880Z,20.00
2022-08-22T20:36:18.631Z,19.90
2022-08-22T20:39:02.969Z,19.90
2022-08-22T20:41:35.791Z,19.80
2022-08-22T20:44:12.267Z,19.90
2022-08-22T20:46:46.151Z,19.80
2022-08-22T20:49:23.972Z,19.80
2022-08-22T20:52:09.807Z,19.80
2022-08-22T20:54:40.071Z,19.70
2022-08-22T20:57:19.350Z,19.70
2022-08-22T20:59:51.604Z,19.70
2022-08-22T21:02:28.653Z,19.70
2022-08-22T21:05:01.814Z,19.80
2022-08-22T21:07:47.053Z,19.70
2022-08-22T21:10:42.549Z,19.70
2022-08-22T21:13:27.366Z,19.70
2022-08-22T21:15:59.279Z,19.70
2022-08-22T21:18:36.507Z,19.70
2022-08-22T21:21:18.133Z,19.70
2022-08-22T21:23:52.577Z,19.70
2022-08-22T21:26:25.113Z,19.70
2022-08-22T21:29:01.174Z,19.70
2022-08-22T21:31:32.813Z,19.70
2022-08-22T21:34:01.116Z,19.70
2022-08-22T21:36:31.649Z,19.70
2022-08-22T21:39:12.635Z,19.60
2022-08-22T21:41:42.074Z,19.60
2022-08-22T21:44:27.346Z,19.60
2022-08-22T21:46:55.767Z,19.60
2022-08-22T21:49:27.704Z,19.60
2022-08-22T21:51:56.005Z,19.60
2022-08-22T21:54:29.263Z,19.60
2022-08-22T21:56:59.849Z,19.60
2022-08-22T22:00:00.259Z,19.50
2022-08-22T22:02:34.167Z,19.60
2022-08-22T22:05:11.292Z,19.60
2022-08-22T22:07:45.178Z,19.60
2022-08-22T22:10:15.647Z,19.50
2022-08-22T22:12:45.678Z,19.50
2022-08-22T22:15:16.533Z,19.40
2022-08-22T22:17:44.195Z,19.40
2022-08-22T22:20:12.204Z,19.40
2022-08-22T22:22:46.477Z,19.40
2022-08-22T22:25:40.059Z,19.40
2022-08-22T22:28:13.966Z,19.40
2022-08-22T22:30:43.129Z,19.30
2022-08-22T22:33:11.153Z,19.30
2022-08-22T22:35:40.176Z,19.30
2022-08-22T22:38:08.153Z,19.40
2022-08-22T22:40:36.137Z,19.40
2022-08-22T22:43:04.030Z,19.40
2022-08-22T22:45:31.507Z,19.30
2022-08-22T22:47:59.140Z,19.30
2022-08-22T22:50:26.641Z,19.30
2022-08-22T22:52:54.349Z,19.30
2022-08-22T22:55:24.913Z,19.20
2022-08-22T22:57:58.670Z,19.20
2022-08-22T23:00:30.796Z,19.20
2022-08-22T23:03:01.407Z,19.10
2022-08-22T23:05:30.571Z,19.20
2022-08-22T23:07:58.812Z,19.10
2022-08-22T23:10:27.677Z,19.10
2022-08-22T23:12:55.237Z,19.10
2022-08-22T23:15:22.716Z,19.10
2022-08-22T23:17:50.407Z,19.10
2022-08-22T23:20:18.097Z,19.00
2022-08-22T23:22:46.763Z,19.00
2022-08-22T23:25:14.809Z,18.90
2022-08-22T23:27:42.660Z,18.90
2022-08-22T23:30:11.115Z,18.90
2022-08-22T23:32:39.153Z,18.90
2022-08-22T23:35:07.406Z,18.90
2022-08-22T23:37:35.292Z,18.90
2022-08-22T23:40:06.633Z,18.90
2022-08-22T23:42:34.226Z,18.90
2022-08-22T23:45:01.888Z,18.80
2022-08-22T23:47:29.510Z,18.80
2022-08-22T23:49:57.027Z,18.80
2022-08-22T23:52:24.526Z,18.80
2022-08-22T23:54:55.638Z,18.80
2022-08-22T23:57:26.548Z,18.80
2022-08-22T23:59:57.991Z,18.80
